Terminal Aerodrome Forecast
Issued by NWS

Home | Current Version | Previous Version | Graphics & Text | Print | Product List | Glossary On
Versions: 1 2 3 4 5 6 7 8 9 10 11 12 13 14 15 16 17 18 19 20 21 22 23 24
000
FTUS43 KABR 231100
TAFMBG
TAF
KMBG 231139Z 2312/2412 11011KT P6SM SKC
     FM231500 14019G27KT P6SM SCT250
     FM240200 11015KT P6SM VCSH BKN090 OVC120
     FM240700 11008KT P6SM BKN120=

USA.gov is the U.S. government's official web portal to all federal, state and local government web resources and services.